createdAt,value
2018-09-23T00:00:19.535Z,1.23
2018-09-23T00:02:52.963Z,0.57
2018-09-23T00:05:26.225Z,0.60
2018-09-23T00:07:59.322Z,0.60
2018-09-23T00:10:33.068Z,1.17
2018-09-23T00:13:06.634Z,0.50
2018-09-23T00:15:39.709Z,0.20
2018-09-23T00:18:12.785Z,1.07
2018-09-23T00:20:46.111Z,1.43
2018-09-23T00:23:19.209Z,3.37
2018-09-23T00:25:52.488Z,0.87
2018-09-23T00:28:25.871Z,0.90
2018-09-23T00:30:59.349Z,1.07
2018-09-23T00:33:32.436Z,1.20
2018-09-23T00:36:05.871Z,2.10
2018-09-23T00:38:39.033Z,1.53
2018-09-23T00:41:12.629Z,2.03
2018-09-23T00:43:45.466Z,1.80
2018-09-23T00:46:19.104Z,1.27
2018-09-23T00:48:52.437Z,5.13
2018-09-23T00:51:25.797Z,4.33
2018-09-23T00:53:58.945Z,5.07
2018-09-23T00:56:32.064Z,2.77
2018-09-23T00:59:05.183Z,2.23
2018-09-23T01:01:38.167Z,4.23
2018-09-23T01:04:12.516Z,5.17
2018-09-23T01:06:45.738Z,4.53
2018-09-23T01:09:19.107Z,6.50
2018-09-23T01:11:52.214Z,6.27
2018-09-23T01:14:27.129Z,4.93
2018-09-23T01:17:00.544Z,7.67
2018-09-23T01:19:33.601Z,6.43
2018-09-23T01:22:06.889Z,7.50
2018-09-23T01:24:40.287Z,5.33
2018-09-23T01:27:13.640Z,7.13
2018-09-23T01:29:46.890Z,7.97
2018-09-23T01:32:20.313Z,9.10
2018-09-23T01:34:54.555Z,5.73
2018-09-23T01:37:28.096Z,10.63
2018-09-23T01:40:02.023Z,5.03
2018-09-23T01:42:35.539Z,5.17
2018-09-23T01:45:08.750Z,8.43
2018-09-23T01:47:42.135Z,5.57
2018-09-23T01:50:15.699Z,6.20
2018-09-23T01:52:48.921Z,7.73
2018-09-23T01:55:22.326Z,6.27
2018-09-23T01:57:55.771Z,6.00
2018-09-23T02:00:29.348Z,7.73
2018-09-23T02:03:02.280Z,4.70
2018-09-23T02:05:35.609Z,5.47
2018-09-23T02:08:09.037Z,6.70
2018-09-23T02:10:42.505Z,11.47
2018-09-23T02:13:15.852Z,7.20
2018-09-23T02:15:49.121Z,10.20
2018-09-23T02:18:22.155Z,6.43
2018-09-23T02:20:55.417Z,6.10
2018-09-23T02:23:29.118Z,8.57
2018-09-23T02:26:02.587Z,11.17
2018-09-23T02:28:35.984Z,5.27
2018-09-23T02:31:09.237Z,8.53
2018-09-23T02:33:42.568Z,7.70
2018-09-23T02:36:15.960Z,7.97
2018-09-23T02:38:49.102Z,6.80
2018-09-23T02:41:22.303Z,5.87
2018-09-23T02:43:55.540Z,7.03
2018-09-23T02:46:28.562Z,7.43
2018-09-23T02:49:01.825Z,8.10
2018-09-23T02:58:26.114Z,3.77
2018-09-23T03:00:59.740Z,3.17
2018-09-23T03:03:38.981Z,4.17
2018-09-23T03:06:16.355Z,3.60
2018-09-23T03:08:49.443Z,5.13
2018-09-23T03:11:22.752Z,4.20
2018-09-23T03:14:02.676Z,4.27
2018-09-23T03:16:35.863Z,5.13
2018-09-23T03:19:09.100Z,2.43
2018-09-23T03:21:42.360Z,2.97
2018-09-23T03:24:16.185Z,3.77
2018-09-23T03:26:49.263Z,3.97
2018-09-23T03:29:22.554Z,2.80
2018-09-23T03:31:55.825Z,1.83
2018-09-23T03:34:29.825Z,3.10
2018-09-23T03:37:03.322Z,5.47
2018-09-23T03:39:36.454Z,3.80
2018-09-23T03:42:09.892Z,3.20
2018-09-23T03:44:43.306Z,4.63
2018-09-23T03:47:16.605Z,4.43
2018-09-23T03:49:50.135Z,3.87
2018-09-23T03:52:23.603Z,5.40
2018-09-23T03:54:56.566Z,4.93
2018-09-23T03:57:29.694Z,7.23
2018-09-23T04:00:03.058Z,3.60
2018-09-23T04:02:36.417Z,12.07
2018-09-23T04:05:09.536Z,7.67
2018-09-23T04:07:43.422Z,4.83
2018-09-23T04:10:16.848Z,10.47
2018-09-23T04:12:50.059Z,10.33
2018-09-23T04:15:23.348Z,9.53
2018-09-23T04:17:56.748Z,7.10
2018-09-23T04:20:30.009Z,9.77
2018-09-23T04:23:03.235Z,8.60
2018-09-23T04:25:36.318Z,10.20
2018-09-23T04:28:16.642Z,9.73
2018-09-23T04:31:10.050Z,9.27
2018-09-23T04:33:46.784Z,9.60
2018-09-23T04:36:23.037Z,8.37
2018-09-23T04:38:57.667Z,8.97
2018-09-23T04:41:31.493Z,7.37
2018-09-23T04:44:08.785Z,11.23
2018-09-23T04:46:45.844Z,7.57
2018-09-23T04:49:21.492Z,10.23
2018-09-23T04:51:56.119Z,8.03
2018-09-23T04:54:33.389Z,8.43
2018-09-23T04:57:16.016Z,12.20
2018-09-23T04:59:51.578Z,7.40
2018-09-23T05:02:39.669Z,7.40
2018-09-23T05:05:13.231Z,8.90
2018-09-23T05:07:48.335Z,7.37
2018-09-23T05:10:21.902Z,10.33
2018-09-23T05:12:57.331Z,7.43
2018-09-23T05:15:30.889Z,8.33
2018-09-23T05:18:04.044Z,9.73
2018-09-23T05:20:37.395Z,8.27
2018-09-23T05:23:10.886Z,8.33
2018-09-23T05:25:43.923Z,7.87
2018-09-23T05:28:17.393Z,12.87
2018-09-23T05:30:51.228Z,8.03
2018-09-23T05:33:24.454Z,11.13
2018-09-23T05:35:57.771Z,7.90
2018-09-23T05:38:31.089Z,8.27
2018-09-23T05:41:05.718Z,8.57
2018-09-23T05:43:39.148Z,10.17
2018-09-23T05:46:12.527Z,11.47
2018-09-23T05:48:45.799Z,6.83
2018-09-23T05:51:19.043Z,9.90
2018-09-23T05:53:52.332Z,8.37
2018-09-23T05:56:25.777Z,13.03
2018-09-23T05:58:59.194Z,10.03
2018-09-23T06:01:32.475Z,10.97
2018-09-23T06:04:06.229Z,11.23
2018-09-23T06:06:39.313Z,10.13
2018-09-23T06:09:12.506Z,9.97
2018-09-23T06:11:46.579Z,12.13
2018-09-23T06:14:21.172Z,12.80
2018-09-23T06:16:54.454Z,8.63
2018-09-23T06:19:27.774Z,9.63
2018-09-23T06:22:01.192Z,9.60
2018-09-23T06:24:34.537Z,8.67
2018-09-23T06:27:07.776Z,5.33
2018-09-23T06:29:40.897Z,7.30
2018-09-23T06:32:13.940Z,11.43
2018-09-23T06:34:47.273Z,8.03
2018-09-23T06:37:20.501Z,8.70
2018-09-23T06:39:53.872Z,9.10
2018-09-23T06:42:27.164Z,15.93
2018-09-23T06:45:00.535Z,8.97
2018-09-23T06:47:33.765Z,9.07
2018-09-23T06:50:07.394Z,11.67
2018-09-23T06:52:40.556Z,9.10
2018-09-23T06:55:13.891Z,9.43
2018-09-23T06:57:47.293Z,10.27
2018-09-23T07:00:20.354Z,9.83
2018-09-23T07:02:53.984Z,6.23
2018-09-23T07:05:27.268Z,6.73
2018-09-23T07:08:00.466Z,10.63
2018-09-23T07:10:34.631Z,10.40
2018-09-23T07:13:09.074Z,9.40
2018-09-23T07:15:42.847Z,7.77
2018-09-23T07:18:16.672Z,11.67
2018-09-23T07:20:49.777Z,8.20
2018-09-23T07:23:23.093Z,7.30
2018-09-23T07:25:58.368Z,14.77
2018-09-23T07:28:31.659Z,14.80
2018-09-23T07:31:06.455Z,7.97
2018-09-23T07:33:40.261Z,9.53
2018-09-23T07:36:13.585Z,12.47
2018-09-23T07:38:47.499Z,14.40
2018-09-23T07:41:20.808Z,11.70
2018-09-23T07:43:56.607Z,10.27
2018-09-23T07:46:30.515Z,13.50
2018-09-23T07:49:04.972Z,7.23
2018-09-23T07:51:39.092Z,7.07
2018-09-23T07:54:12.558Z,10.37
2018-09-23T07:56:45.861Z,10.63
2018-09-23T07:59:19.163Z,8.50
2018-09-23T08:01:52.455Z,9.37
2018-09-23T08:04:25.721Z,9.47
2018-09-23T08:06:59.888Z,10.23
2018-09-23T08:09:35.064Z,8.10
2018-09-23T08:12:09.597Z,12.17
2018-09-23T08:14:43.190Z,14.73
2018-09-23T08:17:18.033Z,12.13
2018-09-23T08:19:52.787Z,13.60
2018-09-23T08:22:27.859Z,9.70
2018-09-23T08:25:01.312Z,9.57
2018-09-23T08:27:36.254Z,11.70
2018-09-23T08:30:11.344Z,8.50
2018-09-23T08:32:44.703Z,13.47
2018-09-23T08:35:18.201Z,7.03
2018-09-23T08:37:52.188Z,9.50
2018-09-23T08:40:25.458Z,11.83
2018-09-23T08:42:58.913Z,8.77
2018-09-23T08:45:34.719Z,16.30
2018-09-23T08:48:08.050Z,6.27
2018-09-23T08:50:41.829Z,9.83
2018-09-23T08:53:17.209Z,12.70
2018-09-23T08:55:51.869Z,17.33
2018-09-23T08:58:25.097Z,10.63
2018-09-23T09:00:58.872Z,12.80
2018-09-23T09:03:33.056Z,9.27
2018-09-23T09:06:06.596Z,8.87
2018-09-23T09:08:40.072Z,7.43
2018-09-23T09:11:13.620Z,6.80
2018-09-23T09:13:47.332Z,14.93
2018-09-23T09:16:20.633Z,8.20
2018-09-23T09:18:53.663Z,7.77
2018-09-23T09:21:30.789Z,9.20
2018-09-23T09:24:09.222Z,7.13
2018-09-23T09:26:44.224Z,7.43
2018-09-23T09:29:17.665Z,12.13
2018-09-23T09:31:51.791Z,14.53
2018-09-23T09:34:24.964Z,10.13
2018-09-23T09:36:59.284Z,11.83
2018-09-23T09:39:32.680Z,13.50
2018-09-23T09:42:06.721Z,10.03
2018-09-23T09:44:40.351Z,9.40
2018-09-23T09:47:15.408Z,12.53
2018-09-23T09:49:50.804Z,9.57
2018-09-23T09:52:25.108Z,10.17
2018-09-23T09:54:58.421Z,5.70
2018-09-23T09:57:32.002Z,7.97
2018-09-23T10:00:08.467Z,13.17
2018-09-23T10:02:42.043Z,14.03
2018-09-23T10:05:15.677Z,10.63
2018-09-23T10:07:50.985Z,7.77
2018-09-23T10:10:25.320Z,9.03
2018-09-23T10:13:00.989Z,9.87
2018-09-23T10:15:35.105Z,7.10
2018-09-23T10:18:09.357Z,14.77
2018-09-23T10:20:43.830Z,9.73
2018-09-23T10:23:19.825Z,10.47
2018-09-23T10:25:53.677Z,8.97
2018-09-23T10:28:26.997Z,9.20
2018-09-23T10:31:00.373Z,13.17
2018-09-23T10:33:35.135Z,12.17
2018-09-23T10:36:09.771Z,8.07
2018-09-23T10:38:43.234Z,9.30
2018-09-23T10:41:16.542Z,10.77
2018-09-23T10:43:49.904Z,9.67
2018-09-23T10:46:23.093Z,9.67
2018-09-23T10:48:58.155Z,8.67
2018-09-23T10:51:32.759Z,8.83
2018-09-23T10:54:06.662Z,13.13
2018-09-23T10:56:39.795Z,11.77
2018-09-23T10:59:13.921Z,10.40
2018-09-23T11:01:47.459Z,8.47
2018-09-23T11:04:20.830Z,9.10
2018-09-23T11:06:54.376Z,11.13
2018-09-23T11:09:27.640Z,8.63
2018-09-23T11:12:02.375Z,11.13
2018-09-23T11:14:35.609Z,11.83
2018-09-23T11:17:09.140Z,7.50
2018-09-23T11:19:43.319Z,13.07
2018-09-23T11:22:18.167Z,10.93
2018-09-23T11:24:51.547Z,8.37
2018-09-23T11:27:25.448Z,3.53
2018-09-23T11:29:58.996Z,11.33
2018-09-23T11:32:32.649Z,8.67
2018-09-23T11:35:06.219Z,10.43
2018-09-23T11:37:39.594Z,8.43
2018-09-23T11:40:14.325Z,7.90
2018-09-23T11:42:47.774Z,8.30
2018-09-23T11:45:21.140Z,11.60
2018-09-23T11:47:54.106Z,7.77
2018-09-23T11:50:27.625Z,8.50
2018-09-23T11:53:01.000Z,10.97
2018-09-23T11:55:34.311Z,13.47
2018-09-23T11:58:07.414Z,11.83
2018-09-23T12:00:40.916Z,8.27
2018-09-23T12:03:13.879Z,14.17
2018-09-23T12:05:47.801Z,15.83
2018-09-23T12:08:21.436Z,14.27
2018-09-23T12:10:55.031Z,9.63
2018-09-23T12:13:29.161Z,12.30
2018-09-23T12:16:03.378Z,8.10
2018-09-23T12:18:36.997Z,15.83
2018-09-23T12:21:10.692Z,13.27
2018-09-23T12:23:46.090Z,14.97
2018-09-23T12:26:20.121Z,14.83
2018-09-23T12:28:53.700Z,12.47
2018-09-23T12:31:26.733Z,10.67
2018-09-23T12:34:01.313Z,13.60
2018-09-23T12:36:36.664Z,14.43
2018-09-23T12:39:13.156Z,11.83
2018-09-23T12:41:48.018Z,9.93
2018-09-23T12:44:21.478Z,7.07
2018-09-23T12:46:55.790Z,15.27
2018-09-23T12:49:32.389Z,9.70
2018-09-23T12:52:05.462Z,12.47
2018-09-23T12:54:40.579Z,10.23
2018-09-23T12:57:14.109Z,12.90
2018-09-23T12:59:47.610Z,10.40
2018-09-23T13:02:21.282Z,12.07
2018-09-23T13:04:55.681Z,14.87
2018-09-23T13:07:32.138Z,14.50
2018-09-23T13:10:05.857Z,10.03
2018-09-23T13:12:39.716Z,12.03
2018-09-23T13:15:13.075Z,12.43
2018-09-23T13:17:47.415Z,12.00
2018-09-23T13:20:21.815Z,10.50
2018-09-23T13:22:56.292Z,12.37
2018-09-23T13:25:31.554Z,11.57
2018-09-23T13:28:04.915Z,10.03
2018-09-23T13:30:43.160Z,15.20
2018-09-23T13:33:17.713Z,13.53
2018-09-23T13:35:53.060Z,14.00
2018-09-23T13:38:26.536Z,12.20
2018-09-23T13:40:59.863Z,11.17
2018-09-23T13:43:34.551Z,8.73
2018-09-23T13:46:07.995Z,9.30
2018-09-23T13:48:41.006Z,9.00
2018-09-23T13:51:18.855Z,14.97
2018-09-23T13:53:52.184Z,11.80
2018-09-23T13:56:25.347Z,12.93
2018-09-23T13:58:58.440Z,8.00
2018-09-23T14:01:32.558Z,13.20
2018-09-23T14:04:06.147Z,11.50
2018-09-23T14:06:39.323Z,11.60
2018-09-23T14:09:12.714Z,9.57
2018-09-23T14:11:50.034Z,14.37
2018-09-23T14:14:22.987Z,14.17
2018-09-23T14:16:56.262Z,16.27
2018-09-23T14:19:30.752Z,12.93
2018-09-23T14:22:05.081Z,10.00
2018-09-23T14:24:38.616Z,15.53
2018-09-23T14:27:12.509Z,12.63
2018-09-23T14:29:51.638Z,12.10
2018-09-23T14:32:24.722Z,16.53
2018-09-23T14:34:58.883Z,16.73
2018-09-23T14:37:33.141Z,12.83
2018-09-23T14:40:06.539Z,12.97
2018-09-23T14:42:41.854Z,15.87
2018-09-23T14:45:14.807Z,12.60
2018-09-23T14:47:49.515Z,12.83
2018-09-23T14:50:22.896Z,16.03
2018-09-23T14:52:55.928Z,18.10
2018-09-23T14:55:29.304Z,13.90
2018-09-23T14:58:02.613Z,15.50
2018-09-23T15:00:35.666Z,11.53
2018-09-23T15:03:08.951Z,8.80
2018-09-23T15:05:42.036Z,10.07
2018-09-23T15:08:16.655Z,14.67
2018-09-23T15:10:52.264Z,13.17
2018-09-23T15:13:25.792Z,13.27
2018-09-23T15:15:59.393Z,7.43
2018-09-23T15:18:33.591Z,11.03
2018-09-23T15:21:07.276Z,13.27
2018-09-23T15:23:40.403Z,12.77
2018-09-23T15:26:13.966Z,11.73
2018-09-23T15:28:49.684Z,12.47
2018-09-23T15:31:23.128Z,12.90
2018-09-23T15:33:57.252Z,11.57
2018-09-23T15:36:30.372Z,14.43
2018-09-23T15:39:03.837Z,13.33
2018-09-23T15:41:37.101Z,9.20
2018-09-23T15:44:10.520Z,9.00
2018-09-23T15:46:43.807Z,11.33
2018-09-23T15:49:16.927Z,9.07
2018-09-23T15:51:50.644Z,10.20
2018-09-23T15:54:24.328Z,13.40
2018-09-23T15:56:57.561Z,13.57
2018-09-23T16:02:35.407Z,13.23
2018-09-23T16:05:08.837Z,10.70
2018-09-23T16:07:42.266Z,10.73
2018-09-23T16:10:16.861Z,11.37
2018-09-23T16:12:51.460Z,8.63
2018-09-23T16:15:24.934Z,14.07
2018-09-23T16:17:58.681Z,11.27
2018-09-23T16:20:33.951Z,10.00
2018-09-23T16:23:08.944Z,11.30
2018-09-23T16:25:43.722Z,10.37
2018-09-23T16:28:18.981Z,10.93
2018-09-23T16:30:53.014Z,11.17
2018-09-23T16:33:26.224Z,8.70
2018-09-23T16:36:00.307Z,8.30
2018-09-23T16:38:33.681Z,9.83
2018-09-23T16:41:07.616Z,9.37
2018-09-23T16:43:40.634Z,8.03
2018-09-23T16:46:14.461Z,9.97
2018-09-23T16:48:50.331Z,10.47
2018-09-23T16:51:24.453Z,10.10
2018-09-23T16:53:57.735Z,13.50
2018-09-23T16:56:31.066Z,6.23
2018-09-23T16:59:05.346Z,8.73
2018-09-23T17:01:39.111Z,12.73
2018-09-23T17:04:12.442Z,8.53
2018-09-23T17:06:45.745Z,6.73
2018-09-23T17:09:20.049Z,10.67
2018-09-23T17:11:53.811Z,12.17
2018-09-23T17:14:28.880Z,9.43
2018-09-23T17:17:03.179Z,9.00
2018-09-23T17:19:36.503Z,13.00
2018-09-23T17:22:10.251Z,8.17
2018-09-23T17:24:43.526Z,11.47
2018-09-23T17:27:16.961Z,8.60
2018-09-23T17:29:51.200Z,10.97
2018-09-23T17:32:25.253Z,6.30
2018-09-23T17:34:59.495Z,7.50
2018-09-23T17:37:33.947Z,7.03
2018-09-23T17:40:08.425Z,6.57
2018-09-23T17:42:42.401Z,9.43
2018-09-23T17:45:15.982Z,10.77
2018-09-23T17:47:50.072Z,6.43
2018-09-23T17:50:23.524Z,6.37
2018-09-23T17:52:58.216Z,5.63
2018-09-23T17:55:32.398Z,8.67
2018-09-23T17:58:08.395Z,8.47
2018-09-23T18:00:44.135Z,7.20
2018-09-23T18:03:19.487Z,7.50
2018-09-23T18:05:57.296Z,7.97
2018-09-23T18:08:30.562Z,8.97
2018-09-23T18:11:05.942Z,8.33
2018-09-23T18:13:39.820Z,6.80
2018-09-23T18:16:14.028Z,10.07
2018-09-23T18:18:47.528Z,7.67
2018-09-23T18:21:21.214Z,6.73
2018-09-23T18:23:54.971Z,9.60
2018-09-23T18:26:28.932Z,9.00
2018-09-23T18:29:04.754Z,6.77
2018-09-23T18:31:40.659Z,5.93
2018-09-23T18:34:14.471Z,6.30
2018-09-23T18:36:49.615Z,5.17
2018-09-23T18:39:24.680Z,5.97
2018-09-23T18:41:59.039Z,8.33
2018-09-23T18:44:33.024Z,8.53
2018-09-23T18:47:08.775Z,6.97
2018-09-23T18:49:41.937Z,5.90
2018-09-23T18:52:15.083Z,7.13
2018-09-23T18:54:53.597Z,5.37
2018-09-23T18:57:28.541Z,6.77
2018-09-23T19:00:03.522Z,10.87
2018-09-23T19:02:38.571Z,7.27
2018-09-23T19:05:11.873Z,9.30
2018-09-23T19:07:46.036Z,5.20
2018-09-23T19:10:21.596Z,10.50
2018-09-23T19:12:59.329Z,8.87
2018-09-23T19:15:37.463Z,12.07
2018-09-23T19:18:13.131Z,6.27
2018-09-23T19:20:47.233Z,8.47
2018-09-23T19:23:22.777Z,8.47
2018-09-23T19:25:57.003Z,9.67
2018-09-23T19:28:32.316Z,8.10
2018-09-23T19:31:06.585Z,12.10
2018-09-23T19:33:39.869Z,9.63
2018-09-23T19:36:14.917Z,7.10
2018-09-23T19:38:48.516Z,6.93
2018-09-23T19:41:23.002Z,6.33
2018-09-23T19:43:56.690Z,8.60
2018-09-23T19:46:30.133Z,7.60
2018-09-23T19:49:03.967Z,6.50
2018-09-23T19:51:38.020Z,8.17
2018-09-23T19:54:12.728Z,7.03
2018-09-23T19:56:46.751Z,6.73
2018-09-23T19:59:20.651Z,8.43
2018-09-23T20:01:54.828Z,7.40
2018-09-23T20:04:28.045Z,9.60
2018-09-23T20:07:01.649Z,6.80
2018-09-23T20:09:35.328Z,8.93
2018-09-23T20:12:08.831Z,7.63
2018-09-23T20:14:42.268Z,6.90
2018-09-23T20:17:15.439Z,5.33
2018-09-23T20:19:48.757Z,5.67
2018-09-23T20:22:23.875Z,4.47
2018-09-23T20:24:57.477Z,8.43
2018-09-23T20:27:30.766Z,5.87
2018-09-23T20:30:04.101Z,5.27
2018-09-23T20:32:40.653Z,8.63
2018-09-23T20:35:14.353Z,5.57
2018-09-23T20:37:48.870Z,9.43
2018-09-23T20:40:23.274Z,7.17
2018-09-23T20:42:56.498Z,4.17
2018-09-23T20:45:30.497Z,4.47
2018-09-23T20:48:05.433Z,6.47
2018-09-23T20:50:40.455Z,5.93
2018-09-23T20:53:14.972Z,4.70
2018-09-23T20:55:49.762Z,4.83
2018-09-23T20:58:23.046Z,7.30
2018-09-23T21:00:56.279Z,6.27
2018-09-23T21:03:30.411Z,5.50
2018-09-23T21:06:08.069Z,7.53
2018-09-23T21:08:43.121Z,8.13
2018-09-23T21:11:20.569Z,5.87
2018-09-23T21:13:54.379Z,6.63
2018-09-23T21:16:28.532Z,5.57
2018-09-23T21:19:01.552Z,6.23
2018-09-23T21:21:34.974Z,5.73
2018-09-23T21:30:57.506Z,5.37
2018-09-23T21:33:30.624Z,5.27
2018-09-23T21:36:04.779Z,5.77
2018-09-23T21:38:38.245Z,5.33
2018-09-23T21:41:13.149Z,5.33
2018-09-23T21:43:46.285Z,5.80
2018-09-23T21:46:21.894Z,6.43
2018-09-23T21:48:55.111Z,4.07
2018-09-23T21:51:29.017Z,5.93
2018-09-23T21:54:03.754Z,4.80
2018-09-23T21:56:38.489Z,7.53
2018-09-23T21:59:11.749Z,5.93
2018-09-23T22:01:47.882Z,4.90
2018-09-23T22:04:22.271Z,7.20
2018-09-23T22:06:56.342Z,5.63
2018-09-23T22:09:31.975Z,6.77
2018-09-23T22:12:05.888Z,5.47
2018-09-23T22:14:39.488Z,7.60
2018-09-23T22:17:12.780Z,7.83
2018-09-23T22:19:49.678Z,7.77
2018-09-23T22:22:25.754Z,5.77
2018-09-23T22:25:00.202Z,3.73
2018-09-23T22:27:33.404Z,5.57
2018-09-23T22:30:07.771Z,2.97
2018-09-23T22:32:42.236Z,5.57
2018-09-23T22:35:15.844Z,4.33
2018-09-23T22:37:51.791Z,6.30
2018-09-23T22:40:25.291Z,3.20
2018-09-23T22:42:58.964Z,5.07
2018-09-23T22:45:32.398Z,6.00
2018-09-23T22:48:06.881Z,3.87
2018-09-23T22:50:44.804Z,5.77
2018-09-23T22:53:22.468Z,5.00
2018-09-23T22:55:55.779Z,3.63
2018-09-23T22:58:30.066Z,7.93
2018-09-23T23:01:05.819Z,5.83
2018-09-23T23:03:40.966Z,7.20
2018-09-23T23:13:05.185Z,4.43
2018-09-23T23:15:38.892Z,5.43
2018-09-23T23:18:12.784Z,6.57
2018-09-23T23:20:46.007Z,6.70
2018-09-23T23:23:19.402Z,3.10
2018-09-23T23:25:53.443Z,4.97
2018-09-23T23:28:26.983Z,4.37
2018-09-23T23:31:00.787Z,3.30
2018-09-23T23:33:34.742Z,7.50
2018-09-23T23:36:07.926Z,4.17
2018-09-23T23:38:41.481Z,7.23
2018-09-23T23:41:16.041Z,7.23
2018-09-23T23:43:50.292Z,7.43
2018-09-23T23:46:32.732Z,8.07
2018-09-23T23:49:05.830Z,4.20
2018-09-23T23:51:42.445Z,4.67
2018-09-23T23:54:16.270Z,5.57
2018-09-23T23:56:49.773Z,5.33
2018-09-23T23:59:23.301Z,5.03
